createdAt,value
2017-03-15T00:00:39.533Z,968.06
2017-03-15T00:01:50.638Z,968.05
2017-03-15T00:02:49.532Z,968.06
2017-03-15T00:03:40.198Z,968.03
2017-03-15T00:04:40.396Z,967.98
2017-03-15T00:05:49.561Z,968.03
2017-03-15T00:06:48.612Z,968.04
2017-03-15T00:07:45.309Z,968.04
2017-03-15T00:08:41.212Z,968.00
2017-03-15T00:09:47.596Z,967.98
2017-03-15T00:10:47.047Z,967.99
2017-03-15T00:11:55.436Z,967.97
2017-03-15T00:12:43.892Z,968.04
2017-03-15T00:13:59.433Z,968.01
2017-03-15T00:14:55.351Z,968.01
2017-03-15T00:15:49.311Z,968.08
2017-03-15T00:16:49.889Z,968.03
2017-03-15T00:17:52.974Z,968.03
2017-03-15T00:18:40.873Z,968.01
2017-03-15T00:19:54.892Z,967.98
2017-03-15T00:20:49.565Z,967.97
2017-03-15T00:21:57.371Z,967.97
2017-03-15T00:22:38.866Z,967.97
2017-03-15T00:23:58.493Z,968.00
2017-03-15T00:24:42.538Z,967.95
2017-03-15T00:25:40.251Z,967.94
2017-03-15T00:26:55.201Z,967.92
2017-03-15T00:27:46.945Z,967.92
2017-03-15T00:28:48.145Z,967.90
2017-03-15T00:29:45.145Z,967.93
2017-03-15T00:30:41.027Z,967.89
2017-03-15T00:31:50.067Z,967.94
2017-03-15T00:32:49.887Z,967.90
2017-03-15T00:33:38.034Z,967.92
2017-03-15T00:34:50.346Z,967.91
2017-03-15T00:35:40.079Z,967.91
2017-03-15T00:36:45.102Z,967.90
2017-03-15T00:37:55.663Z,967.95
2017-03-15T00:38:47.422Z,967.91
2017-03-15T00:39:49.500Z,967.91
2017-03-15T00:40:49.558Z,967.91
2017-03-15T00:41:43.175Z,967.90
2017-03-15T00:42:40.098Z,967.89
2017-03-15T00:43:50.054Z,967.94
2017-03-15T00:44:47.243Z,967.97
2017-03-15T00:45:43.944Z,967.94
2017-03-15T00:46:38.919Z,967.90
2017-03-15T00:47:40.227Z,967.90
2017-03-15T00:48:55.321Z,967.91
2017-03-15T00:49:40.421Z,967.91
2017-03-15T00:50:47.654Z,967.92
2017-03-15T00:51:47.652Z,967.89
2017-03-15T00:52:39.902Z,967.95
2017-03-15T00:53:40.749Z,967.98
2017-03-15T00:54:44.471Z,967.95
2017-03-15T00:55:49.484Z,967.99
2017-03-15T00:56:34.269Z,967.97
2017-03-15T00:57:55.222Z,967.97
2017-03-15T00:58:44.455Z,967.96
2017-03-15T00:59:47.222Z,967.91
2017-03-15T01:00:40.645Z,967.88
2017-03-15T01:01:49.815Z,967.89
2017-03-15T01:02:51.481Z,967.87
2017-03-15T01:03:49.777Z,967.83
2017-03-15T01:04:51.196Z,967.84
2017-03-15T01:05:40.256Z,967.76
2017-03-15T01:06:52.112Z,967.80
2017-03-15T01:07:50.181Z,967.75
2017-03-15T01:08:48.474Z,967.76
2017-03-15T01:09:49.632Z,967.78
2017-03-15T01:10:54.302Z,967.79
2017-03-15T01:11:45.333Z,967.73
2017-03-15T01:12:59.413Z,967.76
2017-03-15T01:13:50.153Z,967.72
2017-03-15T01:14:54.781Z,967.68
2017-03-15T01:15:49.325Z,967.71
2017-03-15T01:16:59.270Z,967.67
2017-03-15T01:17:53.306Z,967.67
2017-03-15T01:18:37.470Z,967.68
2017-03-15T01:19:54.383Z,967.62
2017-03-15T01:20:54.051Z,967.63
2017-03-15T01:21:53.702Z,967.63
2017-03-15T01:22:48.775Z,967.68
2017-03-15T01:23:49.272Z,967.68
2017-03-15T01:24:44.491Z,967.72
2017-03-15T01:25:50.688Z,967.67
2017-03-15T01:26:49.960Z,967.65
2017-03-15T01:27:45.882Z,967.63
2017-03-15T01:28:55.926Z,967.64
2017-03-15T01:29:56.300Z,967.64
2017-03-15T01:30:40.778Z,967.62
2017-03-15T01:31:52.982Z,967.61
2017-03-15T01:32:48.537Z,967.63
2017-03-15T01:33:47.850Z,967.63
2017-03-15T01:34:45.646Z,967.55
2017-03-15T01:35:47.404Z,967.53
2017-03-15T01:36:54.443Z,967.52
2017-03-15T01:37:53.795Z,967.49
2017-03-15T01:38:54.371Z,967.46
2017-03-15T01:39:53.386Z,967.48
2017-03-15T01:40:58.935Z,967.44
2017-03-15T01:41:53.315Z,967.42
2017-03-15T01:42:43.794Z,967.41
2017-03-15T01:43:40.160Z,967.35
2017-03-15T01:44:51.240Z,967.30
2017-03-15T01:45:44.029Z,967.30
2017-03-15T01:46:35.435Z,967.30
2017-03-15T01:47:44.794Z,967.29
2017-03-15T01:48:50.963Z,967.26
2017-03-15T01:49:41.088Z,967.25
2017-03-15T01:50:41.067Z,967.29
2017-03-15T01:51:51.109Z,967.29
2017-03-15T01:52:40.249Z,967.27
2017-03-15T01:53:33.248Z,967.30
2017-03-15T01:54:41.290Z,967.30
2017-03-15T01:55:48.932Z,967.31
2017-03-15T01:56:45.309Z,967.32
2017-03-15T01:57:46.988Z,967.32
2017-03-15T01:58:42.127Z,967.28
2017-03-15T01:59:44.343Z,967.33
2017-03-15T02:00:49.370Z,967.29
2017-03-15T02:01:44.436Z,967.31
2017-03-15T02:02:57.898Z,967.30
2017-03-15T02:03:47.793Z,967.34
2017-03-15T02:04:53.120Z,967.33
2017-03-15T02:05:50.041Z,967.33
2017-03-15T02:06:40.575Z,967.34
2017-03-15T02:07:55.019Z,967.33
2017-03-15T02:08:59.394Z,967.40
2017-03-15T02:09:43.019Z,967.39
2017-03-15T02:10:36.123Z,967.38
2017-03-15T02:11:40.358Z,967.42
2017-03-15T02:12:49.776Z,967.37
2017-03-15T02:13:55.487Z,967.32
2017-03-15T02:14:49.784Z,967.33
2017-03-15T02:15:36.413Z,967.36
2017-03-15T02:16:43.556Z,967.33
2017-03-15T02:17:44.541Z,967.32
2017-03-15T02:18:51.473Z,967.33
2017-03-15T02:19:46.480Z,967.37
2017-03-15T02:20:54.457Z,967.32
2017-03-15T02:21:47.562Z,967.26
2017-03-15T02:22:40.431Z,967.27
2017-03-15T02:23:40.674Z,967.28
2017-03-15T02:24:51.123Z,967.21
2017-03-15T02:25:48.761Z,967.24
2017-03-15T02:26:55.377Z,967.27
2017-03-15T02:27:49.170Z,967.20
2017-03-15T02:28:39.343Z,967.20
2017-03-15T02:29:49.790Z,967.19
2017-03-15T02:30:40.115Z,967.25
2017-03-15T02:31:45.048Z,967.26
2017-03-15T02:32:50.661Z,967.26
2017-03-15T02:33:40.379Z,967.26
2017-03-15T02:34:44.478Z,967.23
2017-03-15T02:35:49.433Z,967.22
2017-03-15T02:37:00.388Z,967.25
2017-03-15T02:37:54.008Z,967.26
2017-03-15T02:38:49.844Z,967.22
2017-03-15T02:40:00.413Z,967.24
2017-03-15T02:41:04.024Z,967.23
2017-03-15T02:42:00.388Z,967.25
2017-03-15T02:42:55.819Z,967.25
2017-03-15T02:43:44.605Z,967.22
2017-03-15T02:45:06.110Z,967.17
2017-03-15T02:45:49.075Z,967.15
2017-03-15T02:46:45.556Z,967.16
2017-03-15T02:47:48.874Z,967.24
2017-03-15T02:48:44.736Z,967.22
2017-03-15T02:49:49.652Z,967.24
2017-03-15T02:50:55.414Z,967.23
2017-03-15T02:51:49.091Z,967.21
2017-03-15T02:52:45.166Z,967.17
2017-03-15T02:53:44.878Z,967.19
2017-03-15T02:54:40.880Z,967.23
2017-03-15T02:55:49.744Z,967.25
2017-03-15T02:56:40.662Z,967.23
2017-03-15T02:57:55.604Z,967.25
2017-03-15T02:58:45.880Z,967.22
2017-03-15T02:59:46.873Z,967.26
2017-03-15T03:00:47.065Z,967.24
2017-03-15T03:01:59.692Z,967.20
2017-03-15T03:02:43.600Z,967.22
2017-03-15T03:03:40.491Z,967.16
2017-03-15T03:04:55.303Z,967.10
2017-03-15T03:05:51.888Z,967.16
2017-03-15T03:06:41.801Z,967.18
2017-03-15T03:07:48.059Z,967.17
2017-03-15T03:08:44.821Z,967.14
2017-03-15T03:09:53.369Z,967.12
2017-03-15T03:10:40.221Z,967.12
2017-03-15T03:11:48.696Z,967.13
2017-03-15T03:12:44.370Z,967.13
2017-03-15T03:13:43.416Z,967.12
2017-03-15T03:14:44.125Z,967.11
2017-03-15T03:15:51.832Z,967.09
2017-03-15T03:16:40.620Z,967.10
2017-03-15T03:17:49.080Z,967.08
2017-03-15T03:18:49.160Z,967.16
2017-03-15T03:19:40.456Z,967.10
2017-03-15T03:20:45.209Z,967.11
2017-03-15T03:21:43.686Z,967.07
2017-03-15T03:22:56.591Z,967.05
2017-03-15T03:23:35.344Z,967.06
2017-03-15T03:24:48.932Z,967.03
2017-03-15T03:25:49.760Z,966.98
2017-03-15T03:26:40.759Z,966.96
2017-03-15T03:27:41.641Z,966.96
2017-03-15T03:28:47.633Z,967.01
2017-03-15T03:29:40.612Z,967.03
2017-03-15T03:30:49.847Z,967.02
2017-03-15T03:31:34.957Z,967.02
2017-03-15T03:32:55.323Z,967.01
2017-03-15T03:33:43.949Z,967.03
2017-03-15T03:34:48.827Z,967.02
2017-03-15T03:35:38.851Z,967.04
2017-03-15T03:36:44.679Z,967.04
2017-03-15T03:37:47.469Z,967.08
2017-03-15T03:38:58.315Z,967.06
2017-03-15T03:39:42.205Z,967.09
2017-03-15T03:40:37.715Z,967.08
2017-03-15T03:41:55.851Z,967.08
2017-03-15T03:42:49.700Z,967.07
2017-03-15T03:43:45.117Z,967.10
2017-03-15T03:44:37.876Z,967.08
2017-03-15T03:45:54.588Z,967.07
2017-03-15T03:46:54.069Z,967.08
2017-03-15T03:47:52.993Z,967.06
2017-03-15T03:48:39.968Z,967.03
2017-03-15T03:49:50.058Z,967.06
2017-03-15T03:50:40.259Z,967.05
2017-03-15T03:51:49.826Z,967.09
2017-03-15T03:52:38.658Z,967.06
2017-03-15T03:53:43.309Z,967.08
2017-03-15T03:54:40.580Z,967.14
2017-03-15T03:55:43.304Z,967.16
2017-03-15T03:56:48.818Z,967.16
2017-03-15T03:57:43.608Z,967.17
2017-03-15T03:58:48.896Z,967.17
2017-03-15T03:59:40.912Z,967.19
2017-03-15T04:00:45.368Z,967.19
2017-03-15T04:01:57.108Z,967.19
2017-03-15T04:02:58.265Z,967.18
2017-03-15T04:03:50.067Z,967.22
2017-03-15T04:04:48.840Z,967.26
2017-03-15T04:05:54.550Z,967.24
2017-03-15T04:06:44.305Z,967.20
2017-03-15T04:07:38.657Z,967.16
2017-03-15T04:08:43.624Z,967.10
2017-03-15T04:09:55.461Z,967.10
2017-03-15T04:10:40.149Z,967.09
2017-03-15T04:11:39.761Z,967.08
2017-03-15T04:12:34.975Z,967.09
2017-03-15T04:13:45.544Z,967.10
2017-03-15T04:14:47.298Z,967.12
2017-03-15T04:15:44.196Z,967.13
2017-03-15T04:16:40.429Z,967.11
2017-03-15T04:17:41.966Z,967.14
2017-03-15T04:18:45.545Z,967.14
2017-03-15T04:19:52.854Z,967.08
2017-03-15T04:20:38.663Z,967.08
2017-03-15T04:21:49.191Z,967.12
2017-03-15T04:22:49.622Z,967.08
2017-03-15T04:23:49.006Z,967.17
2017-03-15T04:24:49.711Z,967.11
2017-03-15T04:25:50.110Z,967.13
2017-03-15T04:26:44.262Z,967.15
2017-03-15T04:27:44.679Z,967.10
2017-03-15T04:28:44.303Z,967.07
2017-03-15T04:29:36.970Z,967.07
2017-03-15T04:30:54.869Z,967.08
2017-03-15T04:31:49.289Z,967.13
2017-03-15T04:32:49.423Z,967.16
2017-03-15T04:33:39.952Z,967.13
2017-03-15T04:34:41.069Z,967.14
2017-03-15T04:35:44.172Z,967.09
2017-03-15T04:36:44.232Z,967.11
2017-03-15T04:37:40.149Z,967.12
2017-03-15T04:38:33.142Z,967.14
2017-03-15T04:39:48.861Z,967.17
2017-03-15T04:40:49.819Z,967.19
2017-03-15T04:41:43.281Z,967.17
2017-03-15T04:42:37.718Z,967.18
2017-03-15T04:43:49.828Z,967.21
2017-03-15T04:44:44.553Z,967.24
2017-03-15T04:45:47.399Z,967.22
2017-03-15T04:46:45.578Z,967.26
2017-03-15T04:47:47.255Z,967.24
2017-03-15T04:49:00.603Z,967.27
2017-03-15T04:49:49.102Z,967.23
2017-03-15T04:50:48.659Z,967.24
2017-03-15T04:51:55.782Z,967.28
2017-03-15T04:52:40.389Z,967.29
2017-03-15T04:53:44.876Z,967.25
2017-03-15T04:54:44.078Z,967.26
2017-03-15T04:55:55.400Z,967.29
2017-03-15T04:56:40.281Z,967.31
2017-03-15T04:57:50.296Z,967.28
2017-03-15T04:58:50.239Z,967.32
2017-03-15T04:59:40.194Z,967.35
2017-03-15T05:00:48.974Z,967.33
2017-03-15T05:01:39.833Z,967.34
2017-03-15T05:02:35.772Z,967.35
2017-03-15T05:03:48.813Z,967.29
2017-03-15T05:04:50.737Z,967.35
2017-03-15T05:05:50.195Z,967.35
2017-03-15T05:06:42.858Z,967.33
2017-03-15T05:07:40.589Z,967.33
2017-03-15T05:08:39.897Z,967.36
2017-03-15T05:09:40.241Z,967.39
2017-03-15T05:10:40.586Z,967.41
2017-03-15T05:11:39.921Z,967.39
2017-03-15T05:12:40.176Z,967.37
2017-03-15T05:13:57.669Z,967.39
2017-03-15T05:14:47.387Z,967.36
2017-03-15T05:15:42.447Z,967.36
2017-03-15T05:16:43.351Z,967.33
2017-03-15T05:17:48.828Z,967.35
2017-03-15T05:18:40.845Z,967.30
2017-03-15T05:19:49.967Z,967.38
2017-03-15T05:20:40.442Z,967.34
2017-03-15T05:21:40.386Z,967.36
2017-03-15T05:22:54.778Z,967.35
2017-03-15T05:23:44.174Z,967.33
2017-03-15T05:24:44.564Z,967.34
2017-03-15T05:26:00.334Z,967.37
2017-03-15T05:26:33.731Z,967.37
2017-03-15T05:27:43.776Z,967.40
2017-03-15T05:28:44.351Z,967.38
2017-03-15T05:29:44.262Z,967.39
2017-03-15T05:30:50.021Z,967.36
2017-03-15T05:31:50.174Z,967.37
2017-03-15T05:32:44.293Z,967.38
2017-03-15T05:33:43.326Z,967.37
2017-03-15T05:34:40.698Z,967.39
2017-03-15T05:35:42.124Z,967.37
2017-03-15T05:36:54.954Z,967.34
2017-03-15T05:37:53.468Z,967.32
2017-03-15T05:38:42.365Z,967.31
2017-03-15T05:39:48.633Z,967.29
2017-03-15T05:40:44.712Z,967.28
2017-03-15T05:41:45.203Z,967.31
2017-03-15T05:42:46.131Z,967.25
2017-03-15T05:43:49.135Z,967.21
2017-03-15T05:44:31.553Z,967.21
2017-03-15T05:45:49.308Z,967.23
2017-03-15T05:46:50.554Z,967.27
2017-03-15T05:47:41.619Z,967.30
2017-03-15T05:48:23.698Z,967.28
2017-03-15T05:49:32.436Z,967.29
2017-03-15T05:50:37.784Z,967.26
2017-03-15T05:51:31.904Z,967.23
2017-03-15T05:52:37.663Z,967.19
2017-03-15T05:53:30.496Z,967.24
2017-03-15T05:54:33.700Z,967.18
2017-03-15T05:55:38.573Z,967.22
2017-03-15T05:56:32.594Z,967.21
2017-03-15T05:57:26.529Z,967.24
2017-03-15T05:58:42.677Z,967.23
2017-03-15T05:59:32.868Z,967.21
2017-03-15T06:00:28.908Z,967.19
2017-03-15T06:01:32.284Z,967.20
2017-03-15T06:02:22.368Z,967.25
2017-03-15T06:03:29.544Z,967.27
2017-03-15T06:04:42.612Z,967.22
2017-03-15T06:05:29.354Z,967.31
2017-03-15T06:06:41.376Z,967.28
2017-03-15T06:07:20.355Z,967.31
2017-03-15T06:08:44.940Z,967.32
2017-03-15T06:09:16.169Z,967.33
2017-03-15T06:10:21.100Z,967.33
2017-03-15T06:11:33.687Z,967.32
2017-03-15T06:12:26.547Z,967.40
2017-03-15T06:13:34.990Z,967.44
2017-03-15T06:14:26.626Z,967.46
2017-03-15T06:15:32.835Z,967.52
2017-03-15T06:16:26.902Z,967.56
2017-03-15T06:17:27.393Z,967.53
2017-03-15T06:18:23.956Z,967.51
2017-03-15T06:19:34.989Z,967.49
2017-03-15T06:20:11.888Z,967.53
2017-03-15T06:21:48.879Z,967.56
2017-03-15T06:22:27.631Z,967.55
2017-03-15T06:23:45.297Z,967.62
2017-03-15T06:24:44.046Z,967.60
2017-03-15T06:25:28.024Z,967.57
2017-03-15T06:26:29.004Z,967.62
2017-03-15T06:27:19.389Z,967.65
2017-03-15T06:28:38.911Z,967.62
2017-03-15T06:29:19.962Z,967.63
2017-03-15T06:30:27.415Z,967.68
2017-03-15T06:31:47.157Z,967.62
2017-03-15T06:32:27.299Z,967.61
2017-03-15T06:33:19.931Z,967.67
2017-03-15T06:34:29.769Z,967.65
2017-03-15T06:35:23.592Z,967.61
2017-03-15T06:36:22.621Z,967.60
2017-03-15T06:37:27.716Z,967.58
2017-03-15T06:38:37.946Z,967.60
2017-03-15T06:39:39.919Z,967.63
2017-03-15T06:40:38.829Z,967.61
2017-03-15T06:41:44.757Z,967.64
2017-03-15T06:42:33.154Z,967.68
2017-03-15T06:43:35.269Z,967.62
2017-03-15T06:44:43.987Z,967.62
2017-03-15T06:45:43.147Z,967.70
2017-03-15T06:46:27.235Z,967.63
2017-03-15T06:47:48.791Z,967.68
2017-03-15T06:48:30.197Z,967.70
2017-03-15T06:49:32.264Z,967.71
2017-03-15T06:50:27.323Z,967.73
2017-03-15T06:51:32.711Z,967.71
2017-03-15T06:52:32.224Z,967.76
2017-03-15T06:53:39.459Z,967.73
2017-03-15T06:54:44.891Z,967.76
2017-03-15T06:55:32.701Z,967.77
2017-03-15T06:56:44.153Z,967.78
2017-03-15T06:57:31.434Z,967.77
2017-03-15T06:58:43.078Z,967.82
2017-03-15T06:59:32.104Z,967.78
2017-03-15T07:00:24.533Z,967.82
2017-03-15T07:01:27.183Z,967.80
2017-03-15T07:02:24.446Z,967.80
2017-03-15T07:03:30.633Z,967.78
2017-03-15T07:04:28.435Z,967.79
2017-03-15T07:05:31.156Z,967.79
2017-03-15T07:06:28.776Z,967.75
2017-03-15T07:07:25.304Z,967.77
2017-03-15T07:08:21.347Z,967.79
2017-03-15T07:09:29.309Z,967.82
2017-03-15T07:10:32.251Z,967.81
2017-03-15T07:11:33.089Z,967.85
2017-03-15T07:12:33.179Z,967.83
2017-03-15T07:13:39.987Z,967.85
2017-03-15T07:14:42.043Z,967.87
2017-03-15T07:15:53.627Z,967.90
2017-03-15T07:16:50.447Z,967.88
2017-03-15T07:17:47.830Z,967.88
2017-03-15T07:18:33.526Z,967.88
2017-03-15T07:19:48.465Z,967.88
2017-03-15T07:20:49.128Z,967.85
2017-03-15T07:21:40.810Z,967.83
2017-03-15T07:22:33.661Z,967.83
2017-03-15T07:23:29.719Z,967.82
2017-03-15T07:24:29.215Z,967.85
2017-03-15T07:25:33.846Z,967.84
2017-03-15T07:26:34.042Z,967.86
2017-03-15T07:27:43.707Z,967.82
2017-03-15T07:28:26.322Z,967.81
2017-03-15T07:29:25.831Z,967.84
2017-03-15T07:30:22.397Z,967.78
2017-03-15T07:31:32.680Z,967.82
2017-03-15T07:32:30.194Z,967.87
2017-03-15T07:33:34.195Z,967.90
2017-03-15T07:34:32.856Z,967.97
2017-03-15T07:35:31.858Z,967.99
2017-03-15T07:36:34.090Z,968.00
2017-03-15T07:37:42.931Z,967.99
2017-03-15T07:38:31.907Z,967.97
2017-03-15T07:39:32.140Z,967.97
2017-03-15T07:40:22.061Z,967.95
2017-03-15T07:41:31.373Z,967.95
2017-03-15T07:42:27.643Z,967.95
2017-03-15T07:43:39.110Z,967.99
2017-03-15T07:44:29.976Z,968.00
2017-03-15T07:45:27.757Z,968.00
2017-03-15T07:46:27.623Z,967.98
2017-03-15T07:47:29.383Z,967.98
2017-03-15T07:48:37.515Z,967.96
2017-03-15T07:49:26.572Z,967.97
2017-03-15T07:50:24.388Z,968.01
2017-03-15T07:51:36.208Z,967.97
2017-03-15T07:52:31.775Z,968.00
2017-03-15T07:53:32.976Z,968.02
2017-03-15T07:54:43.692Z,967.98
2017-03-15T07:55:41.598Z,968.03
2017-03-15T07:56:27.044Z,968.04
2017-03-15T07:57:23.413Z,968.01
2017-03-15T07:58:21.992Z,968.05
2017-03-15T07:59:19.127Z,968.05
2017-03-15T08:00:27.532Z,968.05
2017-03-15T08:01:19.141Z,968.09
2017-03-15T08:02:15.464Z,968.08
2017-03-15T08:03:20.321Z,968.09
2017-03-15T08:04:15.802Z,968.09
2017-03-15T08:05:28.207Z,968.09
2017-03-15T08:06:20.305Z,968.07
2017-03-15T08:07:24.514Z,968.14
2017-03-15T08:08:20.731Z,968.15
2017-03-15T08:09:27.144Z,968.15
2017-03-15T08:10:18.696Z,968.17
2017-03-15T08:11:27.041Z,968.19
2017-03-15T08:12:21.047Z,968.18
2017-03-15T08:13:27.375Z,968.22
2017-03-15T08:14:31.915Z,968.20
2017-03-15T08:15:22.422Z,968.19
2017-03-15T08:16:27.115Z,968.19
2017-03-15T08:17:28.826Z,968.20
2017-03-15T08:18:21.827Z,968.25
2017-03-15T08:19:24.496Z,968.27
2017-03-15T08:20:17.136Z,968.29
2017-03-15T08:21:32.277Z,968.26
2017-03-15T08:22:33.837Z,968.29
2017-03-15T08:23:29.725Z,968.27
2017-03-15T08:24:27.282Z,968.25
2017-03-15T08:25:20.957Z,968.19
2017-03-15T08:26:32.154Z,968.18
2017-03-15T08:27:22.097Z,968.14
2017-03-15T08:28:16.939Z,968.10
2017-03-15T08:29:27.089Z,968.12
2017-03-15T08:30:22.306Z,968.07
2017-03-15T08:31:23.969Z,968.11
2017-03-15T08:32:27.636Z,968.09
2017-03-15T08:33:24.189Z,968.11
2017-03-15T08:34:21.842Z,968.09
2017-03-15T08:35:30.526Z,968.13
2017-03-15T08:36:30.198Z,968.12
2017-03-15T08:37:27.136Z,968.14
2017-03-15T08:38:22.588Z,968.18
2017-03-15T08:39:24.235Z,968.21
2017-03-15T08:40:27.118Z,968.24
2017-03-15T08:41:23.239Z,968.22
2017-03-15T08:42:18.418Z,968.23
2017-03-15T08:43:21.327Z,968.24
2017-03-15T08:44:22.300Z,968.25
2017-03-15T08:45:40.946Z,968.26
2017-03-15T08:46:17.731Z,968.33
2017-03-15T08:47:23.265Z,968.35
2017-03-15T08:48:21.638Z,968.39
2017-03-15T08:49:24.203Z,968.39
2017-03-15T08:50:21.772Z,968.37
2017-03-15T08:51:23.604Z,968.36
2017-03-15T08:52:24.124Z,968.34
2017-03-15T08:53:21.982Z,968.34
2017-03-15T08:54:28.746Z,968.39
2017-03-15T08:55:23.940Z,968.42
2017-03-15T08:56:18.521Z,968.41
2017-03-15T08:57:21.099Z,968.42
2017-03-15T08:58:26.302Z,968.46
2017-03-15T08:59:23.377Z,968.45
2017-03-15T09:00:24.285Z,968.45
2017-03-15T09:01:27.606Z,968.43
2017-03-15T09:02:26.911Z,968.40
2017-03-15T09:03:29.426Z,968.46
2017-03-15T09:04:31.071Z,968.36
2017-03-15T09:05:19.406Z,968.45
2017-03-15T09:06:22.283Z,968.43
2017-03-15T09:07:18.193Z,968.37
2017-03-15T09:08:16.970Z,968.40
2017-03-15T09:09:27.422Z,968.44
2017-03-15T09:10:27.111Z,968.38
2017-03-15T09:11:20.921Z,968.42
2017-03-15T09:12:21.678Z,968.42
2017-03-15T09:13:17.154Z,968.43
2017-03-15T09:14:20.085Z,968.41
2017-03-15T09:15:16.726Z,968.40
2017-03-15T09:16:21.825Z,968.47
2017-03-15T09:17:24.204Z,968.49
2017-03-15T09:18:20.737Z,968.45
2017-03-15T09:19:21.351Z,968.46
2017-03-15T09:20:21.588Z,968.48
2017-03-15T09:21:19.012Z,968.51
2017-03-15T09:22:30.174Z,968.48
2017-03-15T09:23:29.393Z,968.50
2017-03-15T09:24:30.573Z,968.54
2017-03-15T09:25:29.188Z,968.49
2017-03-15T09:26:21.903Z,968.49
2017-03-15T09:27:28.886Z,968.49
2017-03-15T09:28:21.281Z,968.44
2017-03-15T09:29:25.644Z,968.44
2017-03-15T09:30:20.594Z,968.39
2017-03-15T09:31:22.873Z,968.43
2017-03-15T09:32:24.519Z,968.49
2017-03-15T09:33:23.799Z,968.49
2017-03-15T09:34:20.847Z,968.55
2017-03-15T09:35:25.462Z,968.55
2017-03-15T09:36:24.445Z,968.53
2017-03-15T09:37:23.218Z,968.52
2017-03-15T09:38:21.799Z,968.51
2017-03-15T09:39:23.136Z,968.56
2017-03-15T09:40:18.433Z,968.55
2017-03-15T09:41:21.511Z,968.66
2017-03-15T09:42:16.413Z,968.62
2017-03-15T09:43:22.422Z,968.63
2017-03-15T09:44:32.449Z,968.68
2017-03-15T09:45:24.000Z,968.68
2017-03-15T09:46:15.279Z,968.70
2017-03-15T09:47:22.336Z,968.66
2017-03-15T09:48:24.732Z,968.64
2017-03-15T09:49:36.828Z,968.65
2017-03-15T09:50:18.917Z,968.58
2017-03-15T09:51:20.439Z,968.62
2017-03-15T09:52:22.311Z,968.55
2017-03-15T09:53:26.926Z,968.59
2017-03-15T09:54:18.223Z,968.53
2017-03-15T09:55:19.261Z,968.52
2017-03-15T09:56:31.758Z,968.54
2017-03-15T09:57:24.293Z,968.62
2017-03-15T09:58:26.446Z,968.61
2017-03-15T09:59:17.855Z,968.61
2017-03-15T10:00:17.164Z,968.66
2017-03-15T10:01:25.961Z,968.61
2017-03-15T10:02:22.405Z,968.61
2017-03-15T10:03:24.875Z,968.56
2017-03-15T10:04:22.399Z,968.57
2017-03-15T10:05:27.396Z,968.55
2017-03-15T10:06:29.375Z,968.55
2017-03-15T10:07:31.943Z,968.53
2017-03-15T10:08:21.814Z,968.51
2017-03-15T10:09:23.072Z,968.52
2017-03-15T10:10:26.059Z,968.51
2017-03-15T10:11:20.912Z,968.51
2017-03-15T10:12:20.614Z,968.51
2017-03-15T10:13:17.344Z,968.52
2017-03-15T10:14:22.568Z,968.51
2017-03-15T10:15:15.807Z,968.48
2017-03-15T10:16:22.075Z,968.49
2017-03-15T10:17:24.337Z,968.51
2017-03-15T10:18:27.928Z,968.46
2017-03-15T10:19:22.375Z,968.49
2017-03-15T10:20:18.051Z,968.48
2017-03-15T10:21:23.648Z,968.47
2017-03-15T10:22:19.969Z,968.50
2017-03-15T10:23:26.325Z,968.49
2017-03-15T10:24:22.338Z,968.47
2017-03-15T10:25:21.142Z,968.43
2017-03-15T10:26:21.534Z,968.44
2017-03-15T10:27:22.772Z,968.39
2017-03-15T10:28:28.420Z,968.35
2017-03-15T10:29:21.763Z,968.41
2017-03-15T10:30:19.721Z,968.40
2017-03-15T10:31:22.391Z,968.40
2017-03-15T10:32:22.915Z,968.39
2017-03-15T10:33:29.061Z,968.42
2017-03-15T10:34:33.088Z,968.42
2017-03-15T10:35:22.317Z,968.38
2017-03-15T10:36:20.994Z,968.41
2017-03-15T10:37:26.589Z,968.39
2017-03-15T10:38:20.873Z,968.43
2017-03-15T10:39:27.068Z,968.42
2017-03-15T10:40:27.781Z,968.34
2017-03-15T10:41:15.604Z,968.35
2017-03-15T10:42:14.998Z,968.42
2017-03-15T10:43:17.661Z,968.40
2017-03-15T10:44:21.597Z,968.41
2017-03-15T10:45:23.415Z,968.44
2017-03-15T10:46:24.664Z,968.41
2017-03-15T10:47:20.976Z,968.42
2017-03-15T10:48:25.877Z,968.45
2017-03-15T10:49:26.928Z,968.42
2017-03-15T10:50:22.632Z,968.40
2017-03-15T10:51:23.867Z,968.37
2017-03-15T10:52:49.541Z,968.39
2017-03-15T10:53:26.905Z,968.40
2017-03-15T10:54:28.910Z,968.36
2017-03-15T10:55:26.996Z,968.33
2017-03-15T10:56:14.484Z,968.30
2017-03-15T10:57:23.810Z,968.31
2017-03-15T10:58:19.209Z,968.27
2017-03-15T10:59:31.012Z,968.27
2017-03-15T11:00:19.530Z,968.26
2017-03-15T11:01:15.442Z,968.24
2017-03-15T11:02:18.925Z,968.20
2017-03-15T11:03:22.879Z,968.16
2017-03-15T11:04:27.651Z,968.11
2017-03-15T11:05:21.740Z,968.04
2017-03-15T11:06:13.429Z,968.01
2017-03-15T11:07:18.457Z,968.03
2017-03-15T11:08:26.466Z,968.03
2017-03-15T11:09:16.422Z,967.97
2017-03-15T11:10:27.099Z,967.97
2017-03-15T11:11:22.225Z,967.95
2017-03-15T11:12:44.503Z,967.93
2017-03-15T11:13:29.088Z,967.93
2017-03-15T11:14:28.246Z,967.93
2017-03-15T11:15:17.798Z,967.89
2017-03-15T11:16:27.124Z,967.88
2017-03-15T11:17:22.418Z,967.81
2017-03-15T11:18:16.182Z,967.82
2017-03-15T11:19:21.384Z,967.82
2017-03-15T11:20:21.430Z,967.83
2017-03-15T11:21:31.958Z,967.85
2017-03-15T11:22:44.267Z,967.79
2017-03-15T11:23:40.229Z,967.81
2017-03-15T11:24:43.790Z,967.78
2017-03-15T11:25:51.031Z,967.73
2017-03-15T11:26:50.988Z,967.74
2017-03-15T11:27:56.269Z,967.72
2017-03-15T11:28:49.635Z,967.66
2017-03-15T11:29:30.087Z,967.69
2017-03-15T11:30:27.571Z,967.72
2017-03-15T11:31:23.649Z,967.73
2017-03-15T11:32:23.861Z,967.69
2017-03-15T11:33:41.686Z,967.68
2017-03-15T11:34:32.411Z,967.72
2017-03-15T11:35:27.159Z,967.75
2017-03-15T11:36:24.036Z,967.79
2017-03-15T11:37:30.723Z,967.79
2017-03-15T11:38:18.274Z,967.81
2017-03-15T11:39:17.462Z,967.78
2017-03-15T11:40:21.569Z,967.76
2017-03-15T11:41:16.860Z,967.81
2017-03-15T11:42:26.179Z,967.75
2017-03-15T11:43:21.864Z,967.77
2017-03-15T11:44:17.295Z,967.78
2017-03-15T11:45:23.035Z,967.85
2017-03-15T11:46:27.440Z,967.82
2017-03-15T11:47:37.795Z,967.80
2017-03-15T11:48:23.877Z,967.82
2017-03-15T11:49:23.107Z,967.82
2017-03-15T11:50:28.419Z,967.83
2017-03-15T11:51:20.241Z,967.81
2017-03-15T11:52:20.343Z,967.81
2017-03-15T11:53:20.842Z,967.73
2017-03-15T11:54:21.026Z,967.73
2017-03-15T11:55:29.457Z,967.72
2017-03-15T11:56:26.905Z,967.72
2017-03-15T11:57:17.182Z,967.71
2017-03-15T11:58:23.087Z,967.69
2017-03-15T11:59:17.974Z,967.71
2017-03-15T12:00:23.191Z,967.70
2017-03-15T12:01:22.639Z,967.67
2017-03-15T12:02:22.035Z,967.66
2017-03-15T12:03:20.377Z,967.70
2017-03-15T12:04:32.902Z,967.67
2017-03-15T12:05:16.831Z,967.65
2017-03-15T12:06:32.063Z,967.61
2017-03-15T12:07:31.925Z,967.60
2017-03-15T12:08:21.872Z,967.63
2017-03-15T12:09:28.330Z,967.63
2017-03-15T12:10:21.273Z,967.63
2017-03-15T12:11:16.497Z,967.66
2017-03-15T12:12:16.343Z,967.68
2017-03-15T12:13:26.619Z,967.69
2017-03-15T12:14:15.670Z,967.61
2017-03-15T12:15:31.493Z,967.59
2017-03-15T12:16:27.050Z,967.58
2017-03-15T12:17:24.088Z,967.60
2017-03-15T12:18:27.168Z,967.57
2017-03-15T12:19:23.452Z,967.63
2017-03-15T12:20:28.945Z,967.61
2017-03-15T12:21:35.595Z,967.61
2017-03-15T12:22:22.942Z,967.65
2017-03-15T12:23:22.635Z,967.62
2017-03-15T12:24:26.554Z,967.59
2017-03-15T12:25:32.722Z,967.57
2017-03-15T12:26:28.047Z,967.60
2017-03-15T12:27:27.648Z,967.59
2017-03-15T12:28:27.576Z,967.59